createdAt,value
2018-09-20T00:00:28.967Z,0
2018-09-20T00:01:39.108Z,0
2018-09-20T00:02:48.979Z,0
2018-09-20T00:03:59.118Z,0
2018-09-20T00:05:08.704Z,0
2018-09-20T00:06:18.839Z,0
2018-09-20T00:07:28.978Z,0
2018-09-20T00:08:39.117Z,0
2018-09-20T00:09:48.978Z,0
2018-09-20T00:10:59.167Z,0
2018-09-20T00:12:09.310Z,0
2018-09-20T00:13:19.170Z,0
2018-09-20T00:14:29.353Z,0
2018-09-20T00:15:39.212Z,0
2018-09-20T00:16:49.349Z,0
2018-09-20T00:17:59.212Z,0
2018-09-20T00:19:09.074Z,0
2018-09-20T00:20:19.263Z,0
2018-09-20T00:21:29.406Z,0
2018-09-20T00:22:38.720Z,0
2018-09-20T00:23:48.855Z,0
2018-09-20T00:24:58.717Z,0
2018-09-20T00:26:08.585Z,0
2018-09-20T00:27:18.725Z,0
2018-09-20T00:28:28.861Z,0
2018-09-20T00:29:38.725Z,0
2018-09-20T00:30:48.310Z,0
2018-09-20T00:31:58.446Z,0
2018-09-20T00:33:08.584Z,0
2018-09-20T00:34:18.725Z,0
2018-09-20T00:35:28.317Z,0
2018-09-20T00:36:38.459Z,0
2018-09-20T00:37:48.591Z,0
2018-09-20T00:38:58.454Z,0
2018-09-20T00:40:08.318Z,0
2018-09-20T00:41:18.454Z,0
2018-09-20T00:42:28.315Z,0
2018-09-20T00:43:38.509Z,0
2018-09-20T00:44:48.649Z,0
2018-09-20T00:45:58.503Z,0
2018-09-20T00:47:08.637Z,0
2018-09-20T00:48:18.495Z,0
2018-09-20T00:49:28.684Z,0
2018-09-20T00:50:38.547Z,0
2018-09-20T00:51:48.689Z,0
2018-09-20T00:52:58.602Z,0
2018-09-20T00:54:08.466Z,0
2018-09-20T00:55:18.657Z,0
2018-09-20T00:56:28.793Z,0
2018-09-20T00:57:38.654Z,0
2018-09-20T00:58:48.831Z,0
2018-09-20T00:59:58.964Z,0
2018-09-20T01:01:09.098Z,0
2018-09-20T01:02:19.249Z,0
2018-09-20T01:03:29.387Z,0
2018-09-20T01:04:39.521Z,0
2018-09-20T01:05:49.378Z,0
2018-09-20T01:06:59.568Z,0
2018-09-20T01:08:09.159Z,0
2018-09-20T01:09:19.025Z,0
2018-09-20T01:10:28.895Z,0
2018-09-20T01:11:38.753Z,0
2018-09-20T01:12:48.938Z,0
2018-09-20T01:13:58.798Z,0
2018-09-20T01:15:08.116Z,0
2018-09-20T01:16:17.982Z,0
2018-09-20T01:17:28.115Z,0
2018-09-20T01:18:38.347Z,0
2018-09-20T01:19:48.489Z,0
2018-09-20T01:20:58.626Z,0
2018-09-20T01:22:08.487Z,0
2018-09-20T01:23:18.345Z,0
2018-09-20T01:24:28.530Z,0
2018-09-20T01:25:38.120Z,0
2018-09-20T01:26:47.986Z,0
2018-09-20T01:27:58.129Z,0
2018-09-20T01:29:08.274Z,0
2018-09-20T01:30:18.136Z,0
2018-09-20T01:31:28.003Z,0
2018-09-20T01:32:37.588Z,0
2018-09-20T01:33:47.721Z,0
2018-09-20T01:34:57.862Z,0
2018-09-20T01:36:07.780Z,0
2018-09-20T01:37:17.641Z,0
2018-09-20T01:38:27.778Z,0
2018-09-20T01:39:37.916Z,0
2018-09-20T01:40:47.775Z,0
2018-09-20T01:41:57.961Z,0
2018-09-20T01:43:08.099Z,0
2018-09-20T01:44:17.960Z,0
2018-09-20T01:45:28.092Z,0
2018-09-20T01:46:37.958Z,0
2018-09-20T01:47:47.868Z,0
2018-09-20T01:48:57.729Z,0
2018-09-20T01:50:07.864Z,0
2018-09-20T01:51:18.008Z,0
2018-09-20T01:52:28.148Z,0
2018-09-20T01:53:37.780Z,0
2018-09-20T01:54:47.926Z,0
2018-09-20T01:55:57.788Z,0
2018-09-20T01:57:07.919Z,0
2018-09-20T01:58:17.776Z,0
2018-09-20T01:59:27.983Z,0
2018-09-20T02:00:38.124Z,0
2018-09-20T02:01:48.265Z,0
2018-09-20T02:02:58.407Z,0
2018-09-20T02:04:07.996Z,0
2018-09-20T02:05:18.180Z,0
2018-09-20T02:06:28.319Z,0
2018-09-20T02:07:38.187Z,0
2018-09-20T02:08:48.320Z,0
2018-09-20T02:09:57.907Z,0
2018-09-20T02:11:07.494Z,0
2018-09-20T02:12:17.352Z,0
2018-09-20T02:13:27.483Z,0
2018-09-20T02:14:36.801Z,0
2018-09-20T02:15:46.389Z,0
2018-09-20T02:16:55.976Z,0
2018-09-20T02:18:05.836Z,0
2018-09-20T02:19:15.701Z,0
2018-09-20T02:20:25.565Z,0
2018-09-20T02:21:35.707Z,0
2018-09-20T02:22:45.892Z,0
2018-09-20T02:23:56.039Z,0
2018-09-20T02:25:05.627Z,0
2018-09-20T02:26:15.491Z,0
2018-09-20T02:27:25.076Z,0
2018-09-20T02:28:35.215Z,0
2018-09-20T02:29:45.074Z,0
2018-09-20T02:30:55.210Z,0
2018-09-20T02:32:05.373Z,0
2018-09-20T02:33:15.275Z,0
2018-09-20T02:34:25.187Z,0
2018-09-20T02:35:35.341Z,0
2018-09-20T02:36:45.200Z,0
2018-09-20T02:37:55.340Z,0
2018-09-20T02:39:05.205Z,0
2018-09-20T02:40:15.400Z,0
2018-09-20T02:41:25.543Z,0
2018-09-20T02:42:35.469Z,0
2018-09-20T02:43:45.614Z,0
2018-09-20T02:44:55.755Z,0
2018-09-20T02:46:05.941Z,0
2018-09-20T02:47:15.810Z,0
2018-09-20T02:48:25.957Z,0
2018-09-20T02:49:35.845Z,0
2018-09-20T02:50:45.712Z,0
2018-09-20T02:51:55.623Z,0
2018-09-20T02:53:05.487Z,0
2018-09-20T02:54:15.623Z,0
2018-09-20T02:55:25.492Z,0
2018-09-20T02:56:35.640Z,0
2018-09-20T02:57:45.807Z,0
2018-09-20T02:58:55.748Z,0
2018-09-20T03:00:06.034Z,0
2018-09-20T03:01:16.180Z,0
2018-09-20T03:02:26.316Z,0
2018-09-20T03:03:36.180Z,0
2018-09-20T03:04:46.038Z,0
2018-09-20T03:05:56.180Z,0
2018-09-20T03:07:06.043Z,0
2018-09-20T03:08:15.634Z,0
2018-09-20T03:09:25.493Z,0
2018-09-20T03:10:35.095Z,0
2018-09-20T03:11:44.682Z,0
2018-09-20T03:12:54.547Z,0
2018-09-20T03:14:04.680Z,0
2018-09-20T03:15:14.327Z,0
2018-09-20T03:16:23.917Z,0
2018-09-20T03:17:33.774Z,0
2018-09-20T03:18:43.657Z,0
2018-09-20T03:19:53.798Z,0
2018-09-20T03:21:03.998Z,0
2018-09-20T03:22:14.136Z,0
2018-09-20T03:23:24.273Z,0
2018-09-20T03:24:34.408Z,0
2018-09-20T03:25:44.543Z,0
2018-09-20T03:26:54.468Z,0
2018-09-20T03:28:04.624Z,0
2018-09-20T03:29:14.756Z,0
2018-09-20T03:30:24.951Z,0
2018-09-20T03:31:35.271Z,0
2018-09-20T03:32:45.137Z,0
2018-09-20T03:33:54.460Z,0
2018-09-20T03:35:04.778Z,0
2018-09-20T03:36:14.643Z,0
2018-09-20T03:37:24.238Z,0
2018-09-20T03:38:33.882Z,0
2018-09-20T03:39:44.030Z,0
2018-09-20T03:40:54.175Z,0
2018-09-20T03:42:04.337Z,0
2018-09-20T03:43:14.495Z,0
2018-09-20T03:44:25.831Z,0
2018-09-20T03:45:35.979Z,0
2018-09-20T03:46:46.137Z,0
2018-09-20T03:47:56.270Z,0
2018-09-20T03:49:05.863Z,0
2018-09-20T03:50:15.451Z,0
2018-09-20T03:51:25.584Z,0
2018-09-20T03:52:35.721Z,0
2018-09-20T03:53:45.887Z,0
2018-09-20T03:54:56.020Z,0
2018-09-20T03:56:06.196Z,0
2018-09-20T03:57:16.329Z,0
2018-09-20T03:58:26.464Z,0
2018-09-20T03:59:36.601Z,0
2018-09-20T04:00:46.188Z,0
2018-09-20T04:01:56.383Z,0
2018-09-20T04:03:06.521Z,0
2018-09-20T04:04:15.831Z,0
2018-09-20T04:05:25.985Z,0
2018-09-20T04:06:35.853Z,0
2018-09-20T04:07:45.719Z,0
2018-09-20T04:08:55.576Z,0
2018-09-20T04:10:05.714Z,0
2018-09-20T04:11:15.900Z,0
2018-09-20T04:12:25.763Z,0
2018-09-20T04:13:35.367Z,0
2018-09-20T04:14:45.231Z,0
2018-09-20T04:15:55.105Z,0
2018-09-20T04:17:05.240Z,0
2018-09-20T04:18:15.101Z,0
2018-09-20T04:19:25.017Z,4
2018-09-20T04:20:35.154Z,4
2018-09-20T04:21:45.295Z,4
2018-09-20T04:22:54.880Z,0
2018-09-20T04:24:04.747Z,4
2018-09-20T04:25:14.933Z,4
2018-09-20T04:26:24.789Z,4
2018-09-20T04:27:34.926Z,8
2018-09-20T04:28:44.510Z,8
2018-09-20T04:29:54.657Z,12
2018-09-20T04:31:04.806Z,12
2018-09-20T04:32:14.946Z,12
2018-09-20T04:33:24.535Z,16
2018-09-20T04:34:34.396Z,20
2018-09-20T04:35:44.548Z,24
2018-09-20T04:36:54.745Z,28
2018-09-20T04:38:04.619Z,32
2018-09-20T04:39:13.939Z,36
2018-09-20T04:40:23.806Z,40
2018-09-20T04:41:33.949Z,48
2018-09-20T04:42:43.873Z,56
2018-09-20T04:43:54.011Z,64
2018-09-20T04:45:04.162Z,76
2018-09-20T04:46:14.303Z,88
2018-09-20T04:47:24.446Z,100
2018-09-20T04:48:34.342Z,112
2018-09-20T04:49:44.225Z,124
2018-09-20T04:50:54.366Z,144
2018-09-20T04:52:04.228Z,156
2018-09-20T04:53:14.459Z,176
2018-09-20T04:54:24.494Z,196
2018-09-20T04:55:34.360Z,220
2018-09-20T04:56:44.229Z,244
2018-09-20T04:57:54.368Z,268
2018-09-20T04:59:04.230Z,292
2018-09-20T05:00:14.289Z,316
2018-09-20T05:01:24.151Z,340
2018-09-20T05:02:34.284Z,368
2018-09-20T05:03:44.422Z,392
2018-09-20T05:04:54.559Z,416
2018-09-20T05:06:04.575Z,444
2018-09-20T05:07:14.428Z,472
2018-09-20T05:08:24.558Z,504
2018-09-20T05:09:35.022Z,540
2018-09-20T05:10:45.433Z,564
2018-09-20T05:11:55.068Z,608
2018-09-20T05:13:04.927Z,648
2018-09-20T05:14:15.062Z,688
2018-09-20T05:15:25.203Z,724
2018-09-20T05:16:34.826Z,768
2018-09-20T05:17:44.733Z,804
2018-09-20T05:18:54.593Z,844
2018-09-20T05:20:04.180Z,884
2018-09-20T05:21:14.367Z,920
2018-09-20T05:22:24.507Z,964
2018-09-20T05:23:34.987Z,1000
2018-09-20T05:24:45.133Z,1036
2018-09-20T05:25:55.267Z,1072
2018-09-20T05:27:05.403Z,1116
2018-09-20T05:28:15.400Z,1152
2018-09-20T05:29:26.341Z,1188
2018-09-20T05:30:36.478Z,1220
2018-09-20T05:31:46.624Z,1256
2018-09-20T05:32:56.482Z,1288
2018-09-20T05:34:06.626Z,1324
2018-09-20T05:35:16.542Z,1356
2018-09-20T05:36:26.405Z,1384
2018-09-20T05:37:35.994Z,1420
2018-09-20T05:38:45.303Z,1448
2018-09-20T05:39:55.164Z,1480
2018-09-20T05:41:05.359Z,1512
2018-09-20T05:42:15.498Z,1540
2018-09-20T05:43:24.887Z,1572
2018-09-20T05:44:35.105Z,1596
2018-09-20T05:45:44.968Z,1628
2018-09-20T05:46:55.157Z,1648
2018-09-20T05:48:05.064Z,1680
2018-09-20T05:49:14.932Z,1708
2018-09-20T05:50:25.069Z,1732
2018-09-20T05:51:35.213Z,1760
2018-09-20T05:52:45.496Z,1784
2018-09-20T05:53:55.629Z,1804
2018-09-20T05:55:05.764Z,1828
2018-09-20T05:56:15.942Z,1856
2018-09-20T05:57:26.075Z,1876
2018-09-20T05:58:36.258Z,1900
2018-09-20T05:59:46.402Z,1920
2018-09-20T06:00:56.263Z,1940
2018-09-20T06:02:06.413Z,1964
2018-09-20T06:03:16.549Z,1984
2018-09-20T06:04:26.461Z,2000
2018-09-20T06:05:36.134Z,2020
2018-09-20T06:06:46.179Z,2048
2018-09-20T06:07:56.041Z,2060
2018-09-20T06:09:06.177Z,2080
2018-09-20T06:10:16.088Z,2100
2018-09-20T06:11:25.953Z,2120
2018-09-20T06:12:35.263Z,2136
2018-09-20T06:13:45.397Z,2156
2018-09-20T06:14:55.532Z,2132
2018-09-20T06:16:05.726Z,2192
2018-09-20T06:17:15.589Z,2212
2018-09-20T06:18:25.446Z,2232
2018-09-20T06:19:34.755Z,2248
2018-09-20T06:20:44.616Z,2272
2018-09-20T06:21:54.443Z,2292
2018-09-20T06:23:04.478Z,2308
2018-09-20T06:24:14.613Z,2328
2018-09-20T06:25:24.473Z,2340
2018-09-20T06:26:34.618Z,2344
2018-09-20T06:27:45.164Z,2364
2018-09-20T06:28:55.119Z,2372
2018-09-20T06:30:04.983Z,2388
2018-09-20T06:31:15.119Z,2408
2018-09-20T06:32:25.265Z,2420
2018-09-20T06:33:37.129Z,2444
2018-09-20T06:34:47.313Z,2448
2018-09-20T06:35:57.574Z,2460
2018-09-20T06:37:07.803Z,2480
2018-09-20T06:38:17.820Z,2488
2018-09-20T06:39:27.809Z,2504
2018-09-20T06:40:37.670Z,2520
2018-09-20T06:42:16.479Z,2536
2018-09-20T06:43:26.779Z,2548
2018-09-20T06:44:36.997Z,2556
2018-09-20T06:45:46.681Z,2576
2018-09-20T06:46:56.541Z,2584
2018-09-20T06:48:06.679Z,2596
2018-09-20T06:49:16.814Z,2608
2018-09-20T06:50:26.596Z,2624
2018-09-20T06:51:36.585Z,2628
2018-09-20T06:52:46.449Z,2636
2018-09-20T06:53:56.592Z,2648
2018-09-20T06:55:06.744Z,2668
2018-09-20T06:56:16.917Z,2676
2018-09-20T06:57:26.779Z,2684
2018-09-20T06:58:36.910Z,2712
2018-09-20T06:59:47.059Z,2716
2018-09-20T07:00:56.654Z,2716
2018-09-20T07:02:06.565Z,2728
2018-09-20T07:03:16.828Z,2740
2018-09-20T07:04:27.095Z,2748
2018-09-20T07:05:36.951Z,2752
2018-09-20T07:06:46.537Z,2760
2018-09-20T07:07:56.455Z,2768
2018-09-20T07:09:06.039Z,2780
2018-09-20T07:10:16.184Z,2800
2018-09-20T07:11:26.316Z,2796
2018-09-20T07:12:36.178Z,2804
2018-09-20T07:13:46.677Z,2816
2018-09-20T07:14:56.877Z,2828
2018-09-20T07:16:06.742Z,2828
2018-09-20T07:17:16.881Z,2840
2018-09-20T07:18:26.737Z,2856
2018-09-20T07:19:36.926Z,2852
2018-09-20T07:20:47.117Z,2864
2018-09-20T07:21:56.977Z,2868
2018-09-20T07:23:07.110Z,2880
2018-09-20T07:24:17.244Z,2892
2018-09-20T07:25:27.884Z,2892
2018-09-20T07:26:37.498Z,2908
2018-09-20T07:27:47.634Z,2900
2018-09-20T07:28:57.495Z,2908
2018-09-20T07:30:07.082Z,2932
2018-09-20T07:31:17.520Z,2928
2018-09-20T07:32:27.655Z,2928
2018-09-20T07:33:37.517Z,2948
2018-09-20T07:34:47.652Z,2952
2018-09-20T07:35:57.789Z,2956
2018-09-20T07:37:07.978Z,2948
2018-09-20T07:38:18.108Z,2964
2018-09-20T07:39:27.972Z,2972
2018-09-20T07:40:38.164Z,2984
2018-09-20T07:41:48.029Z,2976
2018-09-20T07:42:57.915Z,2984
2018-09-20T07:44:07.779Z,2996
2018-09-20T07:45:17.923Z,3012
2018-09-20T07:46:27.786Z,3008
2018-09-20T07:47:37.929Z,3012
2018-09-20T07:48:48.461Z,3028
2018-09-20T07:49:58.607Z,3020
2018-09-20T07:51:08.462Z,3036
2018-09-20T07:52:18.642Z,3044
2018-09-20T07:53:28.793Z,3052
2018-09-20T07:54:38.996Z,3068
2018-09-20T07:55:49.155Z,3068
2018-09-20T07:56:59.484Z,3084
2018-09-20T07:58:09.079Z,3100
2018-09-20T07:59:19.215Z,3096
2018-09-20T08:00:29.418Z,3108
2018-09-20T08:01:39.634Z,3120
2018-09-20T08:02:49.908Z,3120
2018-09-20T08:03:59.763Z,3132
2018-09-20T08:05:09.080Z,3144
2018-09-20T08:06:19.518Z,3156
2018-09-20T08:07:29.658Z,3168
2018-09-20T08:08:39.524Z,3172
2018-09-20T08:09:49.390Z,3188
2018-09-20T08:10:59.250Z,3196
2018-09-20T08:12:08.668Z,3204
2018-09-20T08:13:18.531Z,3224
2018-09-20T08:14:28.400Z,3244
2018-09-20T08:15:38.545Z,3256
2018-09-20T08:16:48.685Z,3264
2018-09-20T08:17:58.603Z,3268
2018-09-20T08:19:08.467Z,3284
2018-09-20T08:20:18.607Z,3300
2018-09-20T08:21:28.942Z,3288
2018-09-20T08:22:38.954Z,3304
2018-09-20T08:23:48.820Z,3304
2018-09-20T08:24:58.722Z,3320
2018-09-20T08:26:08.581Z,3344
2018-09-20T08:27:18.720Z,3340
2018-09-20T08:28:28.311Z,3360
2018-09-20T08:29:38.445Z,3368
2018-09-20T08:30:48.580Z,3372
2018-09-20T08:31:58.443Z,3372
2018-09-20T08:33:08.027Z,3368
2018-09-20T08:34:17.889Z,3396
2018-09-20T08:35:28.037Z,3396
2018-09-20T08:36:37.913Z,3420
2018-09-20T08:37:48.293Z,3424
2018-09-20T08:38:58.400Z,3436
2018-09-20T08:40:07.995Z,3460
2018-09-20T08:41:26.338Z,3448
2018-09-20T08:42:35.649Z,3448
2018-09-20T08:43:45.512Z,3448
2018-09-20T08:44:55.643Z,3464
2018-09-20T08:46:05.785Z,3468
2018-09-20T08:47:23.172Z,3476
2018-09-20T08:48:33.027Z,3492
2018-09-20T08:49:42.609Z,3508
2018-09-20T08:50:52.493Z,3528
2018-09-20T08:52:02.380Z,3544
2018-09-20T08:53:12.525Z,3536
2018-09-20T08:54:22.390Z,3548
2018-09-20T08:55:31.980Z,3572
2018-09-20T08:56:42.008Z,3576
2018-09-20T08:57:51.841Z,3580
2018-09-20T08:59:01.708Z,3604
2018-09-20T09:00:11.304Z,3604
2018-09-20T09:01:21.468Z,3632
2018-09-20T09:02:31.328Z,3640
2018-09-20T09:03:41.462Z,3652
2018-09-20T09:04:51.060Z,3672
2018-09-20T09:06:00.649Z,3716
2018-09-20T09:07:10.534Z,3716
2018-09-20T09:08:20.127Z,3724
2018-09-20T09:09:29.991Z,3744
2018-09-20T09:10:40.178Z,3756
2018-09-20T09:11:50.188Z,3784
2018-09-20T09:13:00.378Z,3800
2018-09-20T09:14:09.969Z,3852
2018-09-20T09:15:19.568Z,3856
2018-09-20T09:16:29.158Z,3872
2018-09-20T09:17:39.291Z,3904
2018-09-20T09:18:49.156Z,3920
2018-09-20T09:19:59.017Z,3972
2018-09-20T09:21:09.155Z,4040
2018-09-20T09:22:19.065Z,4076
2018-09-20T09:23:29.200Z,4136
2018-09-20T09:24:39.338Z,4116
2018-09-20T09:25:49.484Z,4136
2018-09-20T09:26:59.633Z,4168
2018-09-20T09:28:09.225Z,4252
2018-09-20T09:29:18.826Z,4412
2018-09-20T09:30:28.694Z,4492
2018-09-20T09:31:38.833Z,4504
2018-09-20T09:32:48.976Z,4756
2018-09-20T09:33:58.927Z,5828
2018-09-20T09:35:08.862Z,6364
2018-09-20T09:36:18.724Z,4624
2018-09-20T09:37:28.861Z,4964
2018-09-20T09:38:39.008Z,4920
2018-09-20T09:39:50.655Z,4744
2018-09-20T09:41:00.527Z,4412
2018-09-20T09:42:10.885Z,4564
2018-09-20T09:43:20.617Z,4688
2018-09-20T09:44:30.758Z,4560
2018-09-20T09:45:40.341Z,4584
2018-09-20T09:46:50.208Z,5248
2018-09-20T09:48:00.167Z,6764
2018-09-20T09:49:09.506Z,5764
2018-09-20T09:50:19.367Z,7320
2018-09-20T09:51:29.553Z,6136
2018-09-20T09:52:39.413Z,4972
2018-09-20T09:53:49.556Z,4948
2018-09-20T09:54:59.262Z,5088
2018-09-20T09:56:09.136Z,5024
2018-09-20T09:57:20.670Z,4884
2018-09-20T09:58:30.530Z,4908
2018-09-20T09:59:40.757Z,5072
2018-09-20T10:00:50.741Z,5324
2018-09-20T10:02:00.889Z,5712
2018-09-20T10:03:10.500Z,6168
2018-09-20T10:04:20.645Z,5932
2018-09-20T10:05:30.239Z,6112
2018-09-20T10:06:40.100Z,6412
2018-09-20T10:07:50.236Z,6624
2018-09-20T10:09:08.350Z,7392
2018-09-20T10:10:17.934Z,7256
2018-09-20T10:11:27.794Z,6208
2018-09-20T10:12:37.114Z,5432
2018-09-20T10:13:47.514Z,5176
2018-09-20T10:14:58.170Z,4888
2018-09-20T10:16:08.312Z,4760
2018-09-20T10:17:17.899Z,4840
2018-09-20T10:18:28.089Z,5420
2018-09-20T10:19:38.228Z,5592
2018-09-20T10:20:48.366Z,5652
2018-09-20T10:21:57.980Z,5636
2018-09-20T10:23:07.575Z,5360
2018-09-20T10:24:17.765Z,5480
2018-09-20T10:25:27.915Z,5180
2018-09-20T10:26:37.787Z,5252
2018-09-20T10:27:47.925Z,5560
2018-09-20T10:28:57.522Z,6036
2018-09-20T10:30:07.669Z,5420
2018-09-20T10:31:17.606Z,5540
2018-09-20T10:32:27.542Z,6800
2018-09-20T10:33:37.408Z,7796
2018-09-20T10:34:47.549Z,6480
2018-09-20T10:35:57.691Z,5680
2018-09-20T10:37:07.570Z,6004
2018-09-20T10:38:17.157Z,5772
2018-09-20T10:39:27.035Z,5420
2018-09-20T10:40:37.179Z,5396
2018-09-20T10:41:46.764Z,5604
2018-09-20T10:42:56.898Z,6116
2018-09-20T10:44:06.538Z,5652
2018-09-20T10:45:16.675Z,6100
2018-09-20T10:46:26.537Z,7312
2018-09-20T10:47:36.684Z,7572
2018-09-20T10:48:46.559Z,8336
2018-09-20T10:49:56.421Z,8832
2018-09-20T10:51:06.560Z,9004
2018-09-20T10:52:16.427Z,7656
2018-09-20T10:53:26.015Z,6824
2018-09-20T10:54:36.115Z,6808
2018-09-20T10:55:45.785Z,7600
2018-09-20T10:56:55.927Z,8044
2018-09-20T10:58:05.808Z,9924
2018-09-20T10:59:15.947Z,9776
2018-09-20T11:00:25.810Z,14476
2018-09-20T11:01:35.673Z,42368
2018-09-20T11:02:45.822Z,53120
2018-09-20T11:03:55.709Z,52576
2018-09-20T11:05:05.848Z,51136
2018-09-20T11:06:15.995Z,51296
2018-09-20T11:07:25.904Z,52768
2018-09-20T11:08:35.766Z,53152
2018-09-20T11:09:45.913Z,53120
2018-09-20T11:10:56.364Z,53728
2018-09-20T11:12:06.384Z,51104
2018-09-20T11:13:16.261Z,49248
2018-09-20T11:14:26.396Z,50144
2018-09-20T11:15:35.995Z,50880
2018-09-20T11:16:46.142Z,48448
2018-09-20T11:17:56.283Z,47072
2018-09-20T11:19:06.157Z,46624
2018-09-20T11:20:16.022Z,48608
2018-09-20T11:21:25.899Z,48480
2018-09-20T11:22:35.496Z,48000
2018-09-20T11:23:45.638Z,51104
2018-09-20T11:24:55.231Z,49856
2018-09-20T11:26:05.118Z,48928
2018-09-20T11:27:14.989Z,49440
2018-09-20T11:28:24.864Z,49568
2018-09-20T11:29:35.021Z,43936
2018-09-20T11:30:45.193Z,38496
2018-09-20T11:31:54.784Z,38816
2018-09-20T11:33:04.660Z,41856
2018-09-20T11:34:14.532Z,40032
2018-09-20T11:35:24.412Z,38048
2018-09-20T11:36:34.492Z,36480
2018-09-20T11:37:44.092Z,39552
2018-09-20T11:38:54.246Z,44448
2018-09-20T11:40:04.399Z,49952
2018-09-20T11:41:14.607Z,50208
2018-09-20T11:42:24.531Z,50080
2018-09-20T11:43:34.674Z,49856
2018-09-20T11:44:44.540Z,51520
2018-09-20T11:45:54.709Z,50208
2018-09-20T11:47:04.597Z,48992
2018-09-20T11:48:14.565Z,51872
2018-09-20T11:49:24.434Z,53888
2018-09-20T11:50:34.302Z,51360
2018-09-20T11:51:44.460Z,49600
2018-09-20T11:52:54.613Z,50816
2018-09-20T11:54:04.815Z,51232
2018-09-20T11:55:14.687Z,51776
2018-09-20T11:56:24.561Z,51840
2018-09-20T11:57:34.436Z,52576
2018-09-20T11:58:44.308Z,47904
2018-09-20T11:59:54.614Z,47360
2018-09-20T12:01:04.761Z,49696
2018-09-20T12:02:14.934Z,51904
2018-09-20T12:03:25.086Z,54560
2018-09-20T12:04:35.235Z,28480
2018-09-20T12:05:44.885Z,54336
2018-09-20T12:06:54.759Z,51744
2018-09-20T12:08:04.367Z,51424
2018-09-20T12:09:14.522Z,50592
2018-09-20T12:10:24.121Z,50432
2018-09-20T12:11:34.568Z,49664
2018-09-20T12:12:44.447Z,45568
2018-09-20T12:13:54.313Z,44672
2018-09-20T12:15:04.464Z,43136
2018-09-20T12:16:14.615Z,44512
2018-09-20T12:17:24.765Z,39808
2018-09-20T12:18:34.639Z,35744
2018-09-20T12:19:44.511Z,35552
2018-09-20T12:20:54.390Z,34240
2018-09-20T12:22:04.007Z,35424
2018-09-20T12:23:14.211Z,37472
2018-09-20T12:24:24.374Z,39040
2018-09-20T12:25:34.531Z,39936
2018-09-20T12:26:44.406Z,35680
2018-09-20T12:27:54.551Z,34016
2018-09-20T12:29:06.425Z,32896
2018-09-20T12:30:16.030Z,33216
2018-09-20T12:31:26.320Z,33760
2018-09-20T12:32:36.224Z,33920
2018-09-20T12:33:46.396Z,9972
2018-09-20T12:34:56.639Z,19808
2018-09-20T12:36:06.755Z,13864
2018-09-20T12:37:16.898Z,32032
2018-09-20T12:38:27.048Z,35488
2018-09-20T12:39:36.662Z,34336
2018-09-20T12:40:46.290Z,37280
2018-09-20T12:41:55.896Z,33120
2018-09-20T12:43:06.547Z,29984
2018-09-20T12:44:16.744Z,37824
2018-09-20T12:45:26.613Z,33344
2018-09-20T12:46:36.543Z,34976
2018-09-20T12:47:46.416Z,17344
2018-09-20T12:48:56.289Z,17504
2018-09-20T12:50:06.167Z,14812
2018-09-20T12:51:16.040Z,15068
2018-09-20T12:52:26.248Z,9040
2018-09-20T12:53:36.389Z,19040
2018-09-20T12:54:46.246Z,11416
2018-09-20T12:55:56.266Z,32736
2018-09-20T12:57:06.138Z,11684
2018-09-20T12:58:15.776Z,25600
2018-09-20T12:59:25.369Z,16044
2018-09-20T13:00:35.573Z,11972
2018-09-20T13:01:45.449Z,24928
2018-09-20T13:02:55.601Z,11996
2018-09-20T13:04:05.531Z,16544
2018-09-20T13:05:15.399Z,14308
2018-09-20T13:06:24.996Z,14892
2018-09-20T13:07:35.156Z,13420
2018-09-20T13:08:45.304Z,15236
2018-09-20T13:09:55.251Z,11104
2018-09-20T13:11:04.852Z,12752
2018-09-20T13:12:14.722Z,14336
2018-09-20T13:13:24.864Z,15720
2018-09-20T13:14:35.014Z,17568
2018-09-20T13:15:44.980Z,17376
2018-09-20T13:16:55.123Z,16608
2018-09-20T13:18:04.713Z,18912
2018-09-20T13:19:14.583Z,15872
2018-09-20T13:20:24.651Z,13196
2018-09-20T13:21:34.591Z,11360
2018-09-20T13:22:44.456Z,17184
2018-09-20T13:23:54.320Z,17888
2018-09-20T13:25:04.190Z,17664
2018-09-20T13:26:13.780Z,12452
2018-09-20T13:27:23.658Z,10912
2018-09-20T13:28:33.808Z,12748
2018-09-20T13:29:43.400Z,12720
2018-09-20T13:30:53.265Z,13828
2018-09-20T13:32:03.129Z,13024
2018-09-20T13:33:14.074Z,11972
2018-09-20T13:34:23.663Z,11880
2018-09-20T13:35:33.802Z,13504
2018-09-20T13:36:43.946Z,15196
2018-09-20T13:37:53.537Z,14052
2018-09-20T13:39:03.679Z,19200
2018-09-20T13:40:13.823Z,12640
2018-09-20T13:41:23.136Z,14876
2018-09-20T13:42:33.002Z,16352
2018-09-20T13:43:43.431Z,16928
2018-09-20T13:44:53.798Z,15356
2018-09-20T13:46:03.940Z,13636
2018-09-20T13:47:13.810Z,11752
2018-09-20T13:48:23.951Z,12816
2018-09-20T13:49:34.097Z,15480
2018-09-20T13:50:43.744Z,15968
2018-09-20T13:51:53.335Z,19296
2018-09-20T13:53:03.480Z,18752
2018-09-20T13:54:13.346Z,17856
2018-09-20T13:55:23.211Z,16672
2018-09-20T13:56:33.759Z,12628
2018-09-20T13:57:44.198Z,8132
2018-09-20T13:58:54.336Z,6912
2018-09-20T14:00:04.201Z,7116
2018-09-20T14:01:14.066Z,8320
2018-09-20T14:02:24.210Z,9620
2018-09-20T14:03:34.472Z,10820
2018-09-20T14:04:44.698Z,13488
2018-09-20T14:05:55.181Z,13236
2018-09-20T14:07:05.221Z,15300
2018-09-20T14:08:15.361Z,17504
2018-09-20T14:09:25.231Z,21088
2018-09-20T14:10:35.100Z,19680
2018-09-20T14:11:45.241Z,20384
2018-09-20T14:12:55.382Z,18272
2018-09-20T14:14:05.023Z,13712
2018-09-20T14:15:14.892Z,11596
2018-09-20T14:16:24.806Z,11832
2018-09-20T14:17:34.944Z,9968
2018-09-20T14:18:44.538Z,13644
2018-09-20T14:19:54.130Z,12328
2018-09-20T14:21:03.724Z,10744
2018-09-20T14:22:13.862Z,10880
2018-09-20T14:23:23.460Z,21376
2018-09-20T14:24:33.603Z,14400
2018-09-20T14:25:43.507Z,12528
2018-09-20T14:26:53.198Z,17088
2018-09-20T14:28:03.419Z,17952
2018-09-20T14:29:13.285Z,10140
2018-09-20T14:30:22.875Z,10580
2018-09-20T14:31:32.840Z,14156
2018-09-20T14:32:42.431Z,10964
2018-09-20T14:33:52.568Z,9084
2018-09-20T14:35:02.161Z,9180
2018-09-20T14:36:11.474Z,12252
2018-09-20T14:37:21.664Z,46208
2018-09-20T14:38:31.542Z,26432
2018-09-20T14:39:41.690Z,11988
2018-09-20T14:40:51.838Z,11080
2018-09-20T14:42:01.702Z,9804
2018-09-20T14:43:11.849Z,9956
2018-09-20T14:44:21.458Z,8868
2018-09-20T14:45:31.604Z,11736
2018-09-20T14:46:41.196Z,9336
2018-09-20T14:47:50.517Z,11312
2018-09-20T14:49:00.440Z,12144
2018-09-20T14:50:10.308Z,9740
2018-09-20T14:51:20.174Z,6832
2018-09-20T14:52:30.119Z,4572
2018-09-20T14:53:40.308Z,3388
2018-09-20T14:54:50.227Z,3372
2018-09-20T14:56:00.100Z,3936
2018-09-20T14:57:09.971Z,4460
2018-09-20T14:58:20.120Z,14520
2018-09-20T14:59:30.262Z,8164
2018-09-20T15:00:40.703Z,10100
2018-09-20T15:01:50.851Z,46400
2018-09-20T15:03:00.170Z,51456
2018-09-20T15:04:10.310Z,55168
2018-09-20T15:05:20.184Z,26528
2018-09-20T15:06:29.824Z,49312
2018-09-20T15:07:39.686Z,32288
2018-09-20T15:08:49.883Z,29152
2018-09-20T15:09:59.751Z,23392
2018-09-20T15:11:09.900Z,25696
2018-09-20T15:12:20.041Z,23872
2018-09-20T15:13:29.910Z,27040
2018-09-20T15:14:40.052Z,42048
2018-09-20T15:15:49.973Z,44224
2018-09-20T15:16:59.574Z,43424
2018-09-20T15:18:09.217Z,42752
2018-09-20T15:19:18.816Z,44032
2018-09-20T15:20:28.961Z,46656
2018-09-20T15:21:39.110Z,46752
2018-09-20T15:22:48.701Z,46624
2018-09-20T15:23:58.351Z,45728
2018-09-20T15:25:08.228Z,39808
2018-09-20T15:26:17.823Z,39136
2018-09-20T15:27:27.705Z,7216
2018-09-20T15:28:37.849Z,23840
2018-09-20T15:29:48.290Z,6552
2018-09-20T15:30:58.154Z,7776
2018-09-20T15:32:08.327Z,10164
2018-09-20T15:33:18.477Z,8300
2018-09-20T15:34:28.343Z,6192
2018-09-20T15:35:38.257Z,6204
2018-09-20T15:36:48.442Z,6516
2018-09-20T15:37:58.364Z,6144
2018-09-20T15:39:08.230Z,7200
2018-09-20T15:40:18.098Z,6188
2018-09-20T15:41:27.700Z,5676
2018-09-20T15:42:37.838Z,4880
2018-09-20T15:43:47.701Z,4400
2018-09-20T15:44:57.841Z,4036
2018-09-20T15:46:07.709Z,3436
2018-09-20T15:47:17.815Z,3376
2018-09-20T15:48:27.432Z,3596
2018-09-20T15:49:37.031Z,3528
2018-09-20T15:50:47.173Z,3460
2018-09-20T15:51:56.528Z,3460
2018-09-20T15:53:06.450Z,3508